createdAt,value
2022-10-28T00:00:13.343Z,6.63
2022-10-28T00:02:41.065Z,6.73
2022-10-28T00:05:09.528Z,6.10
2022-10-28T00:07:37.103Z,7.30
2022-10-28T00:10:05.317Z,6.87
2022-10-28T00:12:35.871Z,6.50
2022-10-28T00:15:03.733Z,5.93
2022-10-28T00:17:32.732Z,6.17
2022-10-28T00:20:00.319Z,6.17
2022-10-28T00:22:28.879Z,7.47
2022-10-28T00:24:56.505Z,6.80
2022-10-28T00:27:24.244Z,7.30
2022-10-28T00:29:51.858Z,6.37
2022-10-28T00:32:19.616Z,7.10
2022-10-28T00:34:48.613Z,6.17
2022-10-28T00:37:16.345Z,6.50
2022-10-28T00:39:44.111Z,6.07
2022-10-28T00:42:11.938Z,6.53
2022-10-28T00:44:57.569Z,6.77
2022-10-28T00:47:36.944Z,6.43
2022-10-28T00:50:13.141Z,7.13
2022-10-28T00:52:41.438Z,6.33
2022-10-28T00:55:09.920Z,7.30
2022-10-28T00:57:38.756Z,7.23
2022-10-28T01:00:09.016Z,7.50
2022-10-28T01:02:43.172Z,6.93
2022-10-28T01:05:13.109Z,7.30
2022-10-28T01:07:40.890Z,6.70
2022-10-28T01:10:09.751Z,7.07
2022-10-28T01:12:46.311Z,7.33
2022-10-28T01:15:19.730Z,7.60
2022-10-28T01:17:55.545Z,7.73
2022-10-28T01:20:44.204Z,7.30
2022-10-28T01:23:18.385Z,8.53
2022-10-28T01:25:58.974Z,7.60
2022-10-28T01:28:49.799Z,7.07
2022-10-28T01:31:25.452Z,8.10
2022-10-28T01:33:55.658Z,7.40
2022-10-28T01:36:33.382Z,7.60
2022-10-28T01:39:10.939Z,9.03
2022-10-28T01:41:43.497Z,8.13
2022-10-28T01:44:22.230Z,7.87
2022-10-28T01:46:56.945Z,6.87
2022-10-28T01:49:26.905Z,8.00
2022-10-28T01:52:00.767Z,7.83
2022-10-28T01:54:33.677Z,7.30
2022-10-28T01:57:02.349Z,7.33
2022-10-28T01:59:31.879Z,7.93
2022-10-28T02:04:33.549Z,7.40
2022-10-28T02:07:01.607Z,8.43
2022-10-28T02:09:40.206Z,7.83
2022-10-28T02:12:21.510Z,8.50
2022-10-28T02:17:56.462Z,7.63
2022-10-28T02:20:33.242Z,8.50
2022-10-28T02:23:08.966Z,7.70
2022-10-28T02:25:42.681Z,8.57
2022-10-28T02:28:13.337Z,7.20
2022-10-28T02:30:46.153Z,7.87
2022-10-28T02:33:19.261Z,7.83
2022-10-28T02:35:50.103Z,8.03
2022-10-28T02:38:20.321Z,7.63
2022-10-28T02:43:26.234Z,9.20
2022-10-28T02:45:57.893Z,8.80
2022-10-28T02:48:29.838Z,9.20
2022-10-28T02:51:02.789Z,8.77
2022-10-28T02:53:33.589Z,11.83
2022-10-28T02:56:02.888Z,9.47
2022-10-28T02:58:30.512Z,9.30
2022-10-28T03:00:58.149Z,8.53
2022-10-28T03:03:27.095Z,8.50
2022-10-28T03:05:54.705Z,7.80
2022-10-28T03:08:24.640Z,8.67
2022-10-28T03:10:52.605Z,8.00
2022-10-28T03:13:20.165Z,7.87
2022-10-28T03:15:48.065Z,8.47
2022-10-28T03:18:15.667Z,7.73
2022-10-28T03:20:44.581Z,8.90
2022-10-28T03:23:12.216Z,8.60
2022-10-28T03:25:39.785Z,9.43
2022-10-28T03:28:07.477Z,8.33
2022-10-28T03:30:35.036Z,8.57
2022-10-28T03:33:02.741Z,9.13
2022-10-28T03:35:30.370Z,9.50
2022-10-28T03:37:59.311Z,9.13
2022-10-28T03:40:26.905Z,8.60
2022-10-28T03:42:54.783Z,8.87
2022-10-28T03:45:22.599Z,8.87
2022-10-28T03:47:50.553Z,9.30
2022-10-28T03:50:18.399Z,8.77
2022-10-28T03:52:46.228Z,7.90
2022-10-28T03:55:15.358Z,7.80
2022-10-28T03:57:42.929Z,7.43
2022-10-28T04:00:11.365Z,7.90
2022-10-28T04:02:41.582Z,8.10
2022-10-28T04:05:09.676Z,8.90
2022-10-28T04:07:37.292Z,8.80
2022-10-28T04:10:05.198Z,8.03
2022-10-28T04:12:34.114Z,8.90
2022-10-28T04:15:01.720Z,8.20
2022-10-28T04:17:29.382Z,7.57
2022-10-28T04:19:57.075Z,7.47
2022-10-28T04:22:24.661Z,8.20
2022-10-28T04:24:54.473Z,8.17
2022-10-28T04:27:22.274Z,8.60
2022-10-28T04:29:51.207Z,8.93
2022-10-28T04:32:18.794Z,8.67
2022-10-28T04:34:46.378Z,8.80
2022-10-28T04:37:16.984Z,8.63
2022-10-28T04:39:48.059Z,9.00
2022-10-28T04:42:15.868Z,8.93
2022-10-28T04:44:43.461Z,9.20
2022-10-28T04:47:12.587Z,9.27
2022-10-28T04:49:40.193Z,8.10
2022-10-28T04:52:09.740Z,8.13
2022-10-28T04:54:39.845Z,8.00
2022-10-28T04:57:07.675Z,8.90
2022-10-28T04:59:35.305Z,10.13
2022-10-28T05:02:02.994Z,8.80
2022-10-28T05:04:31.984Z,8.53
2022-10-28T05:06:59.649Z,9.03
2022-10-28T05:09:27.310Z,9.63
2022-10-28T05:11:55.295Z,8.80
2022-10-28T05:14:22.965Z,9.50
2022-10-28T05:16:50.661Z,8.83
2022-10-28T05:19:18.449Z,9.13
2022-10-28T05:21:47.486Z,9.13
2022-10-28T05:24:15.123Z,10.10
2022-10-28T05:26:42.816Z,11.33
2022-10-28T05:29:10.495Z,9.43
2022-10-28T05:31:38.225Z,10.43
2022-10-28T05:34:06.077Z,9.63
2022-10-28T05:36:33.774Z,9.70
2022-10-28T05:39:02.939Z,10.33
2022-10-28T05:41:33.071Z,7.83
2022-10-28T05:44:02.935Z,9.70
2022-10-28T05:46:30.607Z,9.10
2022-10-28T05:48:58.483Z,9.23
2022-10-28T05:51:26.154Z,9.17
2022-10-28T05:53:54.599Z,9.40
2022-10-28T05:56:23.539Z,8.40
2022-10-28T05:58:51.205Z,9.67
2022-10-28T06:01:21.770Z,9.03
2022-10-28T06:03:49.477Z,10.03
2022-10-28T06:06:17.212Z,8.63
2022-10-28T06:08:44.908Z,9.50
2022-10-28T06:11:11.113Z,10.10
2022-10-28T06:13:40.081Z,10.00
2022-10-28T06:16:08.202Z,10.57
2022-10-28T06:18:35.840Z,9.60
2022-10-28T06:21:04.152Z,11.87
2022-10-28T06:23:31.767Z,9.70
2022-10-28T06:26:00.848Z,10.70
2022-10-28T06:28:28.901Z,9.60
2022-10-28T06:31:02.778Z,10.30
2022-10-28T06:33:31.503Z,10.40
2022-10-28T06:35:59.333Z,10.97
2022-10-28T06:38:27.631Z,9.80
2022-10-28T06:40:57.307Z,10.73
2022-10-28T06:43:25.041Z,10.90
2022-10-28T06:45:55.419Z,11.93
2022-10-28T06:48:26.038Z,10.67
2022-10-28T06:50:56.085Z,11.97
2022-10-28T06:53:23.747Z,10.20
2022-10-28T06:55:53.857Z,10.50
2022-10-28T06:58:21.574Z,11.40
2022-10-28T07:00:49.448Z,10.97
2022-10-28T07:03:18.795Z,11.33
2022-10-28T07:05:49.134Z,11.50
2022-10-28T07:08:17.070Z,11.07
2022-10-28T07:10:44.895Z,12.70
2022-10-28T07:13:12.873Z,13.40
2022-10-28T07:15:40.892Z,12.93
2022-10-28T07:18:08.880Z,11.43
2022-10-28T07:20:37.029Z,11.47
2022-10-28T07:23:06.490Z,11.57
2022-10-28T07:25:34.115Z,10.33
2022-10-28T07:28:01.804Z,12.57
2022-10-28T07:30:30.333Z,11.83
2022-10-28T07:33:00.924Z,12.37
2022-10-28T07:35:29.256Z,11.23
2022-10-28T07:37:57.541Z,11.63
2022-10-28T07:40:27.441Z,11.20
2022-10-28T07:42:55.528Z,11.50
2022-10-28T07:45:23.516Z,11.03
2022-10-28T07:47:51.162Z,9.43
2022-10-28T07:50:18.831Z,10.90
2022-10-28T07:52:46.466Z,10.40
2022-10-28T07:55:14.270Z,9.97
2022-10-28T07:57:43.316Z,10.73
2022-10-28T08:00:11.922Z,11.50
2022-10-28T08:02:39.912Z,9.97
2022-10-28T08:05:08.167Z,9.70
2022-10-28T08:07:38.526Z,10.47
2022-10-28T08:10:07.820Z,10.73
2022-10-28T08:12:35.581Z,9.77
2022-10-28T08:15:05.532Z,10.50
2022-10-28T08:17:33.155Z,9.83
2022-10-28T08:20:00.872Z,8.57
2022-10-28T08:22:28.544Z,8.97
2022-10-28T08:24:56.190Z,9.47
2022-10-28T08:27:23.784Z,8.67
2022-10-28T08:29:53.304Z,8.20
2022-10-28T08:32:22.436Z,8.33
2022-10-28T08:34:50.030Z,7.97
2022-10-28T08:37:17.678Z,7.67
2022-10-28T08:39:45.381Z,7.37
2022-10-28T08:42:30.282Z,8.47
2022-10-28T08:45:19.362Z,8.03
2022-10-28T08:47:56.855Z,7.60
2022-10-28T08:50:26.752Z,7.30
2022-10-28T08:52:56.954Z,6.60
2022-10-28T08:55:29.006Z,7.47
2022-10-28T08:57:58.756Z,6.87
2022-10-28T09:00:28.427Z,6.70
2022-10-28T09:03:08.220Z,6.60
2022-10-28T09:05:36.006Z,5.97
2022-10-28T09:08:04.062Z,7.37
2022-10-28T09:11:01.174Z,6.27
2022-10-28T09:13:34.485Z,6.00
2022-10-28T09:16:06.399Z,7.13
2022-10-28T09:18:46.488Z,5.10
2022-10-28T09:21:20.394Z,5.87
2022-10-28T09:23:50.984Z,6.40
2022-10-28T09:26:21.539Z,6.70
2022-10-28T09:28:58.327Z,6.40
2022-10-28T09:31:29.907Z,6.50
2022-10-28T09:34:08.275Z,5.80
2022-10-28T09:36:38.986Z,5.77
2022-10-28T09:39:07.391Z,4.17
2022-10-28T09:41:38.106Z,4.70
2022-10-28T09:44:09.475Z,5.30
2022-10-28T09:46:38.725Z,5.00
2022-10-28T09:49:12.884Z,5.10
2022-10-28T09:51:45.516Z,5.60
2022-10-28T09:54:13.689Z,5.57
2022-10-28T09:56:41.683Z,5.07
2022-10-28T09:59:13.050Z,4.93
2022-10-28T10:01:43.244Z,4.67
2022-10-28T10:04:19.272Z,4.70
2022-10-28T10:06:48.967Z,5.30
2022-10-28T10:09:21.429Z,4.93
2022-10-28T10:11:50.446Z,5.83
2022-10-28T10:14:19.807Z,4.80
2022-10-28T10:16:50.111Z,5.03
2022-10-28T10:19:19.047Z,5.67
2022-10-28T10:21:47.975Z,5.23
2022-10-28T10:24:31.590Z,5.07
2022-10-28T10:27:01.538Z,4.20
2022-10-28T10:29:29.768Z,6.37
2022-10-28T10:32:09.506Z,4.40
2022-10-28T10:34:38.535Z,5.17
2022-10-28T10:37:06.207Z,5.87
2022-10-28T10:39:37.728Z,5.67
2022-10-28T10:42:16.287Z,5.60
2022-10-28T10:44:44.270Z,5.43
2022-10-28T10:47:20.890Z,5.03
2022-10-28T10:49:51.927Z,4.90
2022-10-28T10:52:22.758Z,5.13
2022-10-28T10:55:00.088Z,5.00
2022-10-28T10:57:41.077Z,4.70
2022-10-28T11:01:38.212Z,4.40
2022-10-28T11:07:07.885Z,5.00
2022-10-28T11:09:48.451Z,4.40
2022-10-28T11:12:54.196Z,4.10
2022-10-28T11:15:28.569Z,5.10
2022-10-28T11:18:28.251Z,5.20
2022-10-28T11:21:01.832Z,4.77
2022-10-28T11:23:43.225Z,3.60
2022-10-28T11:26:14.055Z,4.97
2022-10-28T11:29:31.021Z,4.10
2022-10-28T11:33:08.104Z,4.20
2022-10-28T11:35:51.698Z,4.50
2022-10-28T11:38:30.494Z,5.60
2022-10-28T11:41:17.423Z,5.67
2022-10-28T11:43:55.071Z,4.03
2022-10-28T11:46:38.459Z,3.90
2022-10-28T11:49:30.647Z,4.60
2022-10-28T11:52:02.061Z,5.37
2022-10-28T11:54:43.574Z,4.70
2022-10-28T11:57:15.987Z,5.07
2022-10-28T12:00:14.069Z,5.57
2022-10-28T12:02:59.812Z,4.37
2022-10-28T12:05:31.821Z,4.60
2022-10-28T12:08:24.609Z,4.03
2022-10-28T12:11:05.276Z,4.93
2022-10-28T12:13:41.298Z,4.07
2022-10-28T12:16:18.566Z,4.40
2022-10-28T12:23:15.714Z,4.90
2022-10-28T12:32:50.426Z,5.07
2022-10-28T12:36:02.659Z,4.53
2022-10-28T12:38:44.449Z,4.70
2022-10-28T12:41:27.610Z,4.60
2022-10-28T12:44:43.875Z,4.07
2022-10-28T12:47:32.554Z,4.07
2022-10-28T12:50:21.039Z,5.00
2022-10-28T12:54:00.036Z,4.30
2022-10-28T12:57:13.959Z,4.13
2022-10-28T12:59:45.690Z,4.80
2022-10-28T13:02:18.066Z,5.03
2022-10-28T13:04:47.528Z,4.50
2022-10-28T13:07:29.603Z,4.20
2022-10-28T13:10:07.730Z,4.20
2022-10-28T13:13:10.944Z,4.27
2022-10-28T13:15:49.210Z,5.90
2022-10-28T13:18:35.388Z,4.57
2022-10-28T13:21:11.516Z,4.90
2022-10-28T13:23:41.703Z,5.37
2022-10-28T13:26:18.180Z,4.50
2022-10-28T13:28:48.094Z,4.40
2022-10-28T13:31:16.406Z,5.60
2022-10-28T13:33:50.078Z,4.80
2022-10-28T13:36:20.843Z,5.10
2022-10-28T13:38:53.782Z,4.80
2022-10-28T13:41:34.166Z,4.13
2022-10-28T13:44:27.321Z,5.13
2022-10-28T13:47:29.179Z,4.97
2022-10-28T13:50:22.535Z,4.90
2022-10-28T13:53:23.581Z,5.30
2022-10-28T13:55:57.951Z,3.97
2022-10-28T13:58:26.601Z,4.87
2022-10-28T14:00:55.168Z,4.63
2022-10-28T14:03:25.071Z,4.37
2022-10-28T14:05:55.952Z,4.77
2022-10-28T14:08:28.766Z,5.20
2022-10-28T14:11:03.844Z,5.10
2022-10-28T14:13:33.265Z,4.10
2022-10-28T14:16:22.937Z,5.30
2022-10-28T14:18:57.129Z,4.90
2022-10-28T14:21:25.217Z,6.30
2022-10-28T14:24:31.412Z,4.43
2022-10-28T14:27:31.544Z,6.00
2022-10-28T14:30:14.682Z,4.30
2022-10-28T14:33:01.887Z,5.80
2022-10-28T14:35:35.298Z,5.63
2022-10-28T14:38:30.817Z,5.37
2022-10-28T14:41:07.638Z,7.13
2022-10-28T14:43:44.626Z,5.40
2022-10-28T14:46:30.320Z,6.73
2022-10-28T14:48:58.962Z,5.63
2022-10-28T14:51:28.212Z,5.20
2022-10-28T14:53:58.165Z,5.77
2022-10-28T14:56:27.072Z,5.80
2022-10-28T14:58:59.193Z,5.03
2022-10-28T15:01:28.704Z,5.53
2022-10-28T15:03:59.666Z,6.67
2022-10-28T15:06:30.841Z,5.77
2022-10-28T15:09:05.282Z,6.20
2022-10-28T15:11:33.611Z,6.87
2022-10-28T15:14:22.831Z,5.30
2022-10-28T15:16:50.864Z,5.93
2022-10-28T15:19:20.759Z,6.13
2022-10-28T15:22:02.420Z,6.27
2022-10-28T15:24:30.209Z,6.70
2022-10-28T15:26:58.298Z,7.73
2022-10-28T15:29:27.376Z,6.73
2022-10-28T15:32:22.981Z,8.10
2022-10-28T15:34:50.732Z,6.57
2022-10-28T15:37:19.029Z,6.07
2022-10-28T15:39:48.297Z,6.63
2022-10-28T15:42:31.709Z,7.40
2022-10-28T15:45:00.857Z,6.63
2022-10-28T15:47:32.918Z,6.83
2022-10-28T15:50:04.041Z,7.23
2022-10-28T15:52:34.267Z,7.00
2022-10-28T15:55:03.172Z,7.57
2022-10-28T15:57:50.623Z,6.67
2022-10-28T16:00:25.028Z,6.67
2022-10-28T16:02:57.910Z,6.30
2022-10-28T16:05:47.093Z,6.20
2022-10-28T16:08:20.453Z,7.17
2022-10-28T16:10:50.530Z,6.27
2022-10-28T16:13:21.146Z,8.03
2022-10-28T16:15:54.077Z,6.90
2022-10-28T16:18:23.040Z,7.93
2022-10-28T16:20:51.000Z,7.67
2022-10-28T16:23:19.357Z,7.80
2022-10-28T16:25:47.118Z,6.97
2022-10-28T16:28:22.310Z,8.87
2022-10-28T16:30:53.696Z,7.40
2022-10-28T16:33:26.126Z,6.60
2022-10-28T16:35:53.742Z,7.93
2022-10-28T16:38:21.569Z,8.47
2022-10-28T16:40:52.018Z,9.57
2022-10-28T16:43:21.850Z,9.33
2022-10-28T16:45:50.486Z,8.13
2022-10-28T16:48:20.256Z,8.60
2022-10-28T16:50:52.606Z,14.40
2022-10-28T16:53:20.628Z,9.33
2022-10-28T16:55:48.351Z,9.63
2022-10-28T16:58:16.728Z,8.60
2022-10-28T17:00:51.204Z,9.77
2022-10-28T17:03:21.921Z,9.80
2022-10-28T17:05:50.102Z,10.03
2022-10-28T17:08:48.900Z,10.43
2022-10-28T17:11:17.104Z,9.57
2022-10-28T17:13:47.881Z,9.93
2022-10-28T17:16:24.337Z,11.27
2022-10-28T17:18:53.881Z,9.50
2022-10-28T17:21:21.877Z,9.93
2022-10-28T17:23:49.883Z,10.03
2022-10-28T17:26:18.761Z,9.37
2022-10-28T17:28:51.936Z,10.47
2022-10-28T17:31:24.919Z,9.40
2022-10-28T17:34:00.019Z,9.80
2022-10-28T17:36:27.945Z,8.27
2022-10-28T17:38:56.131Z,9.03
2022-10-28T17:41:26.858Z,8.67
2022-10-28T17:43:55.988Z,7.20
2022-10-28T17:46:23.909Z,7.60
2022-10-28T17:48:51.948Z,7.70
2022-10-28T17:51:26.406Z,6.37
2022-10-28T17:53:55.997Z,6.20
2022-10-28T17:56:26.538Z,5.87
2022-10-28T17:59:00.104Z,5.80
2022-10-28T18:01:30.329Z,5.67
2022-10-28T18:04:00.114Z,5.53
2022-10-28T18:06:34.624Z,6.47
2022-10-28T18:09:07.540Z,7.23
2022-10-28T18:11:38.085Z,6.50
2022-10-28T18:14:12.321Z,6.70
2022-10-28T18:16:41.958Z,6.00
2022-10-28T18:19:11.971Z,6.37
2022-10-28T18:21:42.147Z,6.53
2022-10-28T18:24:14.212Z,6.33
2022-10-28T18:26:43.401Z,7.47
2022-10-28T18:29:13.151Z,7.07
2022-10-28T18:31:43.945Z,7.83
2022-10-28T18:34:12.165Z,7.40
2022-10-28T18:36:44.106Z,7.57
2022-10-28T18:39:12.227Z,6.70
2022-10-28T18:41:52.500Z,8.00
2022-10-28T18:44:24.239Z,6.83
2022-10-28T18:46:52.216Z,8.73
2022-10-28T18:49:20.232Z,8.13
2022-10-28T18:51:52.374Z,13.17
2022-10-28T18:54:20.699Z,9.30
2022-10-28T18:56:50.551Z,9.60
2022-10-28T18:59:20.970Z,9.70
2022-10-28T19:01:49.652Z,11.27
2022-10-28T19:04:18.339Z,11.60
2022-10-28T19:06:51.167Z,11.40
2022-10-28T19:09:21.332Z,10.90
2022-10-28T19:11:49.077Z,10.40
2022-10-28T19:14:17.769Z,10.53
2022-10-28T19:16:47.183Z,12.03
2022-10-28T19:19:16.194Z,11.63
2022-10-28T19:21:45.845Z,10.23
2022-10-28T19:24:22.489Z,8.90
2022-10-28T19:26:51.331Z,11.77
2022-10-28T19:29:19.815Z,14.53
2022-10-28T19:31:48.074Z,9.57
2022-10-28T19:34:15.765Z,11.23
2022-10-28T19:36:43.500Z,9.90
2022-10-28T19:39:11.161Z,10.67
2022-10-28T19:41:40.210Z,13.17
2022-10-28T19:44:07.838Z,10.67
2022-10-28T19:46:36.614Z,9.43
2022-10-28T19:49:06.553Z,9.17
2022-10-28T19:51:35.298Z,10.63
2022-10-28T19:54:04.756Z,9.13
2022-10-28T19:56:34.119Z,9.13
2022-10-28T19:59:04.087Z,7.87
2022-10-28T20:01:33.769Z,8.10
2022-10-28T20:04:01.857Z,7.97
2022-10-28T20:06:32.364Z,8.73
2022-10-28T20:09:00.120Z,8.40
2022-10-28T20:11:28.849Z,8.40
2022-10-28T20:13:57.814Z,9.67
2022-10-28T20:16:27.071Z,8.23
2022-10-28T20:18:55.133Z,8.93
2022-10-28T20:21:23.891Z,8.13
2022-10-28T20:23:53.565Z,9.17
2022-10-28T20:26:22.339Z,9.43
2022-10-28T20:28:50.652Z,9.73
2022-10-28T20:31:19.949Z,10.40
2022-10-28T20:33:53.803Z,9.90
2022-10-28T20:36:23.781Z,9.47
2022-10-28T20:38:54.407Z,10.00
2022-10-28T20:41:23.103Z,9.90
2022-10-28T20:43:51.579Z,9.10
2022-10-28T20:46:20.294Z,10.90
2022-10-28T20:48:48.603Z,9.63
2022-10-28T20:51:18.015Z,10.33
2022-10-28T20:53:45.744Z,9.87
2022-10-28T20:56:17.732Z,9.63
2022-10-28T20:58:45.514Z,9.10
2022-10-28T21:01:15.319Z,11.30
2022-10-28T21:03:43.482Z,11.30
2022-10-28T21:06:11.793Z,9.77
2022-10-28T21:08:40.867Z,10.10
2022-10-28T21:11:11.049Z,10.23
2022-10-28T21:13:38.856Z,9.73
2022-10-28T21:16:08.237Z,12.20
2022-10-28T21:18:36.884Z,10.90
2022-10-28T21:21:04.775Z,9.90
2022-10-28T21:23:32.516Z,10.03
2022-10-28T21:26:03.329Z,9.60
2022-10-28T21:28:32.799Z,10.07
2022-10-28T21:31:01.333Z,11.20
2022-10-28T21:33:29.480Z,10.33
2022-10-28T21:35:58.084Z,10.57
2022-10-28T21:38:26.926Z,10.53
2022-10-28T21:41:03.507Z,10.47
2022-10-28T21:43:32.436Z,10.80
2022-10-28T21:46:00.652Z,10.50
2022-10-28T21:48:28.817Z,10.30
2022-10-28T21:50:57.574Z,11.53
2022-10-28T21:53:25.884Z,10.60
2022-10-28T21:55:55.507Z,10.50
2022-10-28T21:58:24.630Z,10.10
2022-10-28T22:00:52.259Z,10.80
2022-10-28T22:03:19.964Z,10.57
2022-10-28T22:05:51.213Z,10.20
2022-10-28T22:08:18.796Z,9.73
2022-10-28T22:10:46.431Z,12.60
2022-10-28T22:13:14.070Z,10.13
2022-10-28T22:15:43.337Z,10.33
2022-10-28T22:18:11.199Z,10.10
2022-10-28T22:20:38.808Z,8.70
2022-10-28T22:23:06.441Z,9.93
2022-10-28T22:25:34.079Z,10.67
2022-10-28T22:28:01.810Z,10.13
2022-10-28T22:30:29.455Z,9.97
2022-10-28T22:32:58.681Z,9.57
2022-10-28T22:35:26.373Z,10.87
2022-10-28T22:37:54.165Z,9.93
2022-10-28T22:40:22.103Z,9.43
2022-10-28T22:42:49.751Z,9.87
2022-10-28T22:45:17.918Z,10.50
2022-10-28T22:47:45.587Z,10.77
2022-10-28T22:50:14.635Z,9.77
2022-10-28T22:52:42.315Z,10.20
2022-10-28T22:55:10.788Z,11.37
2022-10-28T22:57:38.384Z,10.90
2022-10-28T23:00:10.284Z,10.10
2022-10-28T23:02:37.960Z,11.20
2022-10-28T23:05:06.303Z,9.50
2022-10-28T23:07:35.202Z,10.53
2022-10-28T23:10:02.802Z,10.37
2022-10-28T23:12:30.452Z,11.27
2022-10-28T23:14:58.614Z,9.63
2022-10-28T23:17:26.277Z,9.10
2022-10-28T23:19:54.008Z,11.80
2022-10-28T23:22:21.553Z,9.40
2022-10-28T23:24:50.533Z,10.50
2022-10-28T23:27:18.123Z,9.90
2022-10-28T23:29:45.714Z,11.63
2022-10-28T23:34:52.659Z,10.37
2022-10-28T23:37:20.336Z,11.77
2022-10-28T23:39:47.951Z,9.40
2022-10-28T23:42:16.937Z,9.50
2022-10-28T23:44:44.640Z,9.13
2022-10-28T23:47:12.352Z,9.43
2022-10-28T23:49:39.949Z,9.60
2022-10-28T23:52:07.896Z,9.57
2022-10-28T23:54:35.504Z,11.07
2022-10-28T23:57:03.130Z,9.60
2022-10-28T23:59:32.074Z,10.27
